sensor_id;sensor_type;location;lat;lon;timestamp;temperature;humidity
35920;DHT22;36160;53.370;-6.196;2023-04-01T00:00:05;10.60;99.90
35920;DHT22;36160;53.370;-6.196;2023-04-01T00:02:32;10.60;99.90
35920;DHT22;36160;53.370;-6.196;2023-04-01T00:04:57;10.60;99.90
35920;DHT22;36160;53.370;-6.196;2023-04-01T00:07:23;10.70;99.90
35920;DHT22;36160;53.370;-6.196;2023-04-01T00:09:48;10.60;99.90
35920;DHT22;36160;53.370;-6.196;2023-04-01T00:12:14;10.70;99.90
35920;DHT22;36160;53.370;-6.196;2023-04-01T00:14:39;10.50;99.90
35920;DHT22;36160;53.370;-6.196;2023-04-01T00:17:05;10.50;99.90
35920;DHT22;36160;53.370;-6.196;2023-04-01T00:19:31;10.50;99.90
35920;DHT22;36160;53.370;-6.196;2023-04-01T00:21:57;10.60;99.90
35920;DHT22;36160;53.370;-6.196;2023-04-01T00:24:23;10.50;99.90
35920;DHT22;36160;53.370;-6.196;2023-04-01T00:26:49;10.50;99.90
35920;DHT22;36160;53.370;-6.196;2023-04-01T00:29:14;10.50;99.90
35920;DHT22;36160;53.370;-6.196;2023-04-01T00:31:40;10.50;99.90
35920;DHT22;36160;53.370;-6.196;2023-04-01T00:34:05;10.50;99.90
35920;DHT22;36160;53.370;-6.196;2023-04-01T00:36:31;10.50;99.90
35920;DHT22;36160;53.370;-6.196;2023-04-01T00:38:57;10.40;99.90
35920;DHT22;36160;53.370;-6.196;2023-04-01T00:41:24;10.50;99.90
35920;DHT22;36160;53.370;-6.196;2023-04-01T00:43:51;10.40;99.90
35920;DHT22;36160;53.370;-6.196;2023-04-01T00:46:17;10.40;99.90
35920;DHT22;36160;53.370;-6.196;2023-04-01T00:49:01;10.40;99.90
35920;DHT22;36160;53.370;-6.196;2023-04-01T00:51:27;10.40;99.90
35920;DHT22;36160;53.370;-6.196;2023-04-01T00:53:55;10.40;99.90
35920;DHT22;36160;53.370;-6.196;2023-04-01T00:56:22;10.30;99.90
35920;DHT22;36160;53.370;-6.196;2023-04-01T00:58:49;10.40;99.90
35920;DHT22;36160;53.370;-6.196;2023-04-01T01:01:16;10.20;99.90
35920;DHT22;36160;53.370;-6.196;2023-04-01T01:03:42;10.30;99.90
35920;DHT22;36160;53.370;-6.196;2023-04-01T01:06:11;10.30;99.90
35920;DHT22;36160;53.370;-6.196;2023-04-01T01:11:38;10.20;99.90
35920;DHT22;36160;53.370;-6.196;2023-04-01T01:14:10;10.30;99.90
35920;DHT22;36160;53.370;-6.196;2023-04-01T01:16:42;10.30;99.90
35920;DHT22;36160;53.370;-6.196;2023-04-01T01:19:11;10.20;99.90
35920;DHT22;36160;53.370;-6.196;2023-04-01T01:37:01;10.30;99.90
35920;DHT22;36160;53.370;-6.196;2023-04-01T01:39:30;10.20;99.90
35920;DHT22;36160;53.370;-6.196;2023-04-01T01:41:57;10.30;99.90
35920;DHT22;36160;53.370;-6.196;2023-04-01T01:44:23;10.20;99.90
35920;DHT22;36160;53.370;-6.196;2023-04-01T01:46:51;10.30;99.90
35920;DHT22;36160;53.370;-6.196;2023-04-01T01:49:17;10.20;99.90
35920;DHT22;36160;53.370;-6.196;2023-04-01T01:51:44;10.20;99.90
35920;DHT22;36160;53.370;-6.196;2023-04-01T01:54:13;10.20;99.90
35920;DHT22;36160;53.370;-6.196;2023-04-01T01:56:39;10.20;99.90
35920;DHT22;36160;53.370;-6.196;2023-04-01T01:59:07;10.10;99.90
35920;DHT22;36160;53.370;-6.196;2023-04-01T02:01:35;10.10;99.90
35920;DHT22;36160;53.370;-6.196;2023-04-01T02:04:02;10.20;99.90
35920;DHT22;36160;53.370;-6.196;2023-04-01T02:06:29;10.10;99.90
35920;DHT22;36160;53.370;-6.196;2023-04-01T02:08:59;10.10;99.90
35920;DHT22;36160;53.370;-6.196;2023-04-01T02:11:34;10.10;99.90
35920;DHT22;36160;53.370;-6.196;2023-04-01T02:14:10;10.00;99.90
35920;DHT22;36160;53.370;-6.196;2023-04-01T02:16:38;10.10;99.90
35920;DHT22;36160;53.370;-6.196;2023-04-01T02:19:05;10.10;99.90
35920;DHT22;36160;53.370;-6.196;2023-04-01T02:21:35;10.10;99.90
35920;DHT22;36160;53.370;-6.196;2023-04-01T02:24:03;10.00;99.90
35920;DHT22;36160;53.370;-6.196;2023-04-01T02:26:30;10.10;99.90
35920;DHT22;36160;53.370;-6.196;2023-04-01T02:28:56;10.00;99.90
35920;DHT22;36160;53.370;-6.196;2023-04-01T02:31:22;10.00;99.90
35920;DHT22;36160;53.370;-6.196;2023-04-01T02:33:48;10.00;99.90
35920;DHT22;36160;53.370;-6.196;2023-04-01T02:36:15;10.00;99.90
35920;DHT22;36160;53.370;-6.196;2023-04-01T02:38:41;9.90;99.90
35920;DHT22;36160;53.370;-6.196;2023-04-01T02:41:08;10.00;99.90
35920;DHT22;36160;53.370;-6.196;2023-04-01T02:43:33;10.00;99.90
35920;DHT22;36160;53.370;-6.196;2023-04-01T02:45:59;10.00;99.90
35920;DHT22;36160;53.370;-6.196;2023-04-01T02:48:25;9.90;99.90
35920;DHT22;36160;53.370;-6.196;2023-04-01T02:50:50;10.00;99.90
35920;DHT22;36160;53.370;-6.196;2023-04-01T02:53:16;10.00;99.90
35920;DHT22;36160;53.370;-6.196;2023-04-01T02:55:41;9.90;99.90
35920;DHT22;36160;53.370;-6.196;2023-04-01T02:58:07;9.90;99.90
35920;DHT22;36160;53.370;-6.196;2023-04-01T03:00:33;9.90;99.90
35920;DHT22;36160;53.370;-6.196;2023-04-01T03:02:58;10.00;99.90
35920;DHT22;36160;53.370;-6.196;2023-04-01T03:05:24;9.90;99.90
35920;DHT22;36160;53.370;-6.196;2023-04-01T03:07:50;9.90;99.90
35920;DHT22;36160;53.370;-6.196;2023-04-01T03:10:15;10.00;99.90
35920;DHT22;36160;53.370;-6.196;2023-04-01T03:12:41;9.90;99.90
35920;DHT22;36160;53.370;-6.196;2023-04-01T03:15:06;9.90;99.90
35920;DHT22;36160;53.370;-6.196;2023-04-01T03:17:32;9.90;99.90
35920;DHT22;36160;53.370;-6.196;2023-04-01T03:19:57;10.00;99.90
35920;DHT22;36160;53.370;-6.196;2023-04-01T03:22:23;9.90;99.90
35920;DHT22;36160;53.370;-6.196;2023-04-01T03:24:48;10.00;99.90
35920;DHT22;36160;53.370;-6.196;2023-04-01T03:27:14;10.00;99.90
35920;DHT22;36160;53.370;-6.196;2023-04-01T03:29:40;9.90;99.90
35920;DHT22;36160;53.370;-6.196;2023-04-01T03:32:06;9.90;99.90
35920;DHT22;36160;53.370;-6.196;2023-04-01T03:34:31;9.90;99.90
35920;DHT22;36160;53.370;-6.196;2023-04-01T03:36:57;10.00;99.90
35920;DHT22;36160;53.370;-6.196;2023-04-01T03:39:23;10.00;99.90
35920;DHT22;36160;53.370;-6.196;2023-04-01T03:41:48;9.90;99.90
35920;DHT22;36160;53.370;-6.196;2023-04-01T03:44:14;9.80;99.90
35920;DHT22;36160;53.370;-6.196;2023-04-01T03:46:40;9.90;99.90
35920;DHT22;36160;53.370;-6.196;2023-04-01T03:49:09;9.90;99.90
35920;DHT22;36160;53.370;-6.196;2023-04-01T03:51:37;9.80;99.90
35920;DHT22;36160;53.370;-6.196;2023-04-01T03:54:03;9.80;99.90
35920;DHT22;36160;53.370;-6.196;2023-04-01T03:56:28;9.80;99.90
35920;DHT22;36160;53.370;-6.196;2023-04-01T03:58:54;9.90;99.90
35920;DHT22;36160;53.370;-6.196;2023-04-01T04:01:20;9.80;99.90
35920;DHT22;36160;53.370;-6.196;2023-04-01T04:03:46;9.80;99.90
35920;DHT22;36160;53.370;-6.196;2023-04-01T04:06:14;9.80;99.90
35920;DHT22;36160;53.370;-6.196;2023-04-01T04:08:39;9.80;99.90
35920;DHT22;36160;53.370;-6.196;2023-04-01T04:11:05;9.80;99.90
35920;DHT22;36160;53.370;-6.196;2023-04-01T04:13:31;9.80;99.90
35920;DHT22;36160;53.370;-6.196;2023-04-01T04:15:56;9.90;99.90
35920;DHT22;36160;53.370;-6.196;2023-04-01T04:18:22;9.80;99.90
35920;DHT22;36160;53.370;-6.196;2023-04-01T04:20:47;9.80;99.90
35920;DHT22;36160;53.370;-6.196;2023-04-01T04:23:15;9.80;99.90
35920;DHT22;36160;53.370;-6.196;2023-04-01T04:25:41;9.80;99.90
35920;DHT22;36160;53.370;-6.196;2023-04-01T04:28:06;9.80;99.90
35920;DHT22;36160;53.370;-6.196;2023-04-01T04:30:32;9.80;99.90
35920;DHT22;36160;53.370;-6.196;2023-04-01T04:32:57;9.80;99.90
35920;DHT22;36160;53.370;-6.196;2023-04-01T04:35:23;9.80;99.90
35920;DHT22;36160;53.370;-6.196;2023-04-01T04:37:48;9.80;99.90
35920;DHT22;36160;53.370;-6.196;2023-04-01T04:40:14;9.80;99.90
35920;DHT22;36160;53.370;-6.196;2023-04-01T04:42:39;9.80;99.90
35920;DHT22;36160;53.370;-6.196;2023-04-01T04:45:05;9.80;99.90
35920;DHT22;36160;53.370;-6.196;2023-04-01T04:47:31;9.80;99.90
35920;DHT22;36160;53.370;-6.196;2023-04-01T04:49:56;9.80;99.90
35920;DHT22;36160;53.370;-6.196;2023-04-01T04:52:22;9.90;99.90
35920;DHT22;36160;53.370;-6.196;2023-04-01T04:54:47;9.80;99.90
35920;DHT22;36160;53.370;-6.196;2023-04-01T04:57:13;9.80;99.90
35920;DHT22;36160;53.370;-6.196;2023-04-01T04:59:38;9.80;99.90
35920;DHT22;36160;53.370;-6.196;2023-04-01T05:02:04;9.80;99.90
35920;DHT22;36160;53.370;-6.196;2023-04-01T05:04:29;9.80;99.90
35920;DHT22;36160;53.370;-6.196;2023-04-01T05:06:59;9.70;99.90
35920;DHT22;36160;53.370;-6.196;2023-04-01T05:09:24;9.80;99.90
35920;DHT22;36160;53.370;-6.196;2023-04-01T05:11:50;9.80;99.90
35920;DHT22;36160;53.370;-6.196;2023-04-01T05:14:15;9.80;99.90
35920;DHT22;36160;53.370;-6.196;2023-04-01T05:16:41;9.80;99.90
35920;DHT22;36160;53.370;-6.196;2023-04-01T05:19:07;9.80;99.90
35920;DHT22;36160;53.370;-6.196;2023-04-01T05:21:32;9.80;99.90
35920;DHT22;36160;53.370;-6.196;2023-04-01T05:23:58;9.80;99.90
35920;DHT22;36160;53.370;-6.196;2023-04-01T05:26:23;9.80;99.90
35920;DHT22;36160;53.370;-6.196;2023-04-01T05:28:49;9.70;99.90
35920;DHT22;36160;53.370;-6.196;2023-04-01T05:31:15;9.70;99.90
35920;DHT22;36160;53.370;-6.196;2023-04-01T05:33:40;9.80;99.90
35920;DHT22;36160;53.370;-6.196;2023-04-01T05:36:07;9.80;99.90
35920;DHT22;36160;53.370;-6.196;2023-04-01T05:38:32;9.80;99.90
35920;DHT22;36160;53.370;-6.196;2023-04-01T05:40:59;9.80;99.90
35920;DHT22;36160;53.370;-6.196;2023-04-01T05:43:25;9.80;99.90
35920;DHT22;36160;53.370;-6.196;2023-04-01T05:45:50;9.80;99.90
35920;DHT22;36160;53.370;-6.196;2023-04-01T05:48:16;9.80;99.90
35920;DHT22;36160;53.370;-6.196;2023-04-01T05:50:41;9.80;99.90
35920;DHT22;36160;53.370;-6.196;2023-04-01T05:53:07;9.80;99.90
35920;DHT22;36160;53.370;-6.196;2023-04-01T05:55:34;9.80;99.90
35920;DHT22;36160;53.370;-6.196;2023-04-01T05:57:59;9.80;99.90
35920;DHT22;36160;53.370;-6.196;2023-04-01T06:00:25;9.80;99.90
35920;DHT22;36160;53.370;-6.196;2023-04-01T06:02:50;9.80;99.90
35920;DHT22;36160;53.370;-6.196;2023-04-01T06:05:19;9.80;99.90
35920;DHT22;36160;53.370;-6.196;2023-04-01T06:07:45;9.70;99.90
35920;DHT22;36160;53.370;-6.196;2023-04-01T06:10:15;9.80;99.90
35920;DHT22;36160;53.370;-6.196;2023-04-01T06:13:02;9.80;99.90
35920;DHT22;36160;53.370;-6.196;2023-04-01T06:41:06;9.60;99.90
35920;DHT22;36160;53.370;-6.196;2023-04-01T06:48:54;9.60;99.90
35920;DHT22;36160;53.370;-6.196;2023-04-01T06:54:11;9.60;99.90
35920;DHT22;36160;53.370;-6.196;2023-04-01T06:56:40;9.60;99.90
35920;DHT22;36160;53.370;-6.196;2023-04-01T06:59:12;9.60;99.90
35920;DHT22;36160;53.370;-6.196;2023-04-01T07:01:40;9.60;99.90
35920;DHT22;36160;53.370;-6.196;2023-04-01T07:04:18;9.50;99.90
35920;DHT22;36160;53.370;-6.196;2023-04-01T07:07:33;9.60;99.90
35920;DHT22;36160;53.370;-6.196;2023-04-01T07:09:32;9.60;99.90
35920;DHT22;36160;53.370;-6.196;2023-04-01T07:12:00;9.50;99.90
35920;DHT22;36160;53.370;-6.196;2023-04-01T07:14:29;9.60;99.90
35920;DHT22;36160;53.370;-6.196;2023-04-01T07:16:58;9.60;99.90
35920;DHT22;36160;53.370;-6.196;2023-04-01T07:19:26;9.80;99.90
35920;DHT22;36160;53.370;-6.196;2023-04-01T07:21:55;9.60;99.90
35920;DHT22;36160;53.370;-6.196;2023-04-01T07:24:24;9.60;99.90
35920;DHT22;36160;53.370;-6.196;2023-04-01T07:26:52;9.70;99.90
35920;DHT22;36160;53.370;-6.196;2023-04-01T07:29:18;9.70;99.90
